Novelda, Spain
Current Conditions -  °F | °C
As of 3:30 PM on Saturday 22 Nov 2014 (Local Time) from LEAL Reporting Station
Clear Clear  
Wind Chill: 68°   Ceiling: Unl
Heat Index: 68°   Visibility: 6mi
Dew Point: 63°   Wind: 13mph
Humidity: 83%   Direction: 60°ENE
Pressure: 29.94"   Gusts: NA
Location:  38.38°N, 0.77°W
Report Text: LEAL 221430Z 06011KT CAVOK 20/17 Q1014 NOSIG
Loading
Personal Weather Stations






























Interactive Weather Map New forecast layout! Learn more

10-Day Weather Forecast

Advertisements
Track Severe Weather on mobile